Time;durP1;ratioP1;P1;durP2;ratioP2;P2;SDS_P1;SDS_P2;PMS_P1;PMS_P2;Temp;Humidity;BMP_temperature;BMP_pressure;BME280_temperature;BME280_humidity;BME280_pressure;Samples;Min_cycle;Max_cycle;Signal;HPM_P1;HPM_P2
2023/09/28 00:01:13;;;;;;;18.10;11.23;;;15.60;79.50;;;;;;5094541;28;20495;-79
2023/09/28 00:03:45;;;;;;;14.07;9.93;;;15.60;79.60;;;;;;5103070;28;20460;-80
2023/09/28 00:06:13;;;;;;;16.40;11.10;;;15.60;79.50;;;;;;5087921;28;20452;-80
2023/09/28 00:08:43;;;;;;;19.67;11.50;;;15.60;79.30;;;;;;5100909;28;20842;-79
2023/09/28 00:11:10;;;;;;;16.20;11.57;;;15.60;79.40;;;;;;5108649;28;20519;-80
2023/09/28 00:13:38;;;;;;;16.07;11.53;;;15.60;79.40;;;;;;5108791;28;21048;-81
2023/09/28 00:16:05;;;;;;;18.67;11.70;;;15.60;79.60;;;;;;5092494;28;20480;-80
2023/09/28 00:18:33;;;;;;;16.43;11.50;;;15.60;79.50;;;;;;5107035;28;20466;-81
2023/09/28 00:21:01;;;;;;;16.50;11.37;;;15.50;79.50;;;;;;5110368;28;20528;-80
2023/09/28 00:23:29;;;;;;;17.37;11.57;;;15.50;79.60;;;;;;5089672;28;21142;-81
2023/09/28 00:26:00;;;;;;;18.27;12.37;;;15.40;79.50;;;;;;5089082;28;21140;-79
2023/09/28 00:28:27;;;;;;;19.53;12.80;;;15.40;79.40;;;;;;5089429;28;20452;-79
2023/09/28 00:30:56;;;;;;;19.10;12.03;;;15.30;79.60;;;;;;5090034;28;20506;-82
2023/09/28 00:33:28;;;;;;;16.47;12.67;;;15.30;79.70;;;;;;5105910;28;20531;-81
2023/09/28 00:35:55;;;;;;;19.57;12.60;;;15.30;79.80;;;;;;5109151;28;20507;-80
2023/09/28 00:38:24;;;;;;;19.60;13.87;;;15.30;79.80;;;;;;5089994;28;20551;-79
2023/09/28 00:40:51;;;;;;;17.60;13.43;;;15.30;80.00;;;;;;5091558;28;20504;-81
2023/09/28 00:43:28;;;;;;;16.80;11.70;;;15.30;80.20;;;;;;5107846;27;20459;-80
2023/09/28 00:45:56;;;;;;;17.13;11.97;;;15.40;80.20;;;;;;5108096;28;20481;-80
2023/09/28 00:48:25;;;;;;;16.60;11.00;;;15.40;80.10;;;;;;5092666;28;20491;-81
2023/09/28 00:50:54;;;;;;;16.50;11.53;;;15.40;79.90;;;;;;5108965;28;20534;-80
2023/09/28 00:53:24;;;;;;;16.63;12.00;;;15.40;79.80;;;;;;5087901;28;20472;-79
2023/09/28 00:55:53;;;;;;;17.57;12.43;;;15.40;79.80;;;;;;5089874;28;20570;-81
2023/09/28 00:58:23;;;;;;;17.60;12.07;;;15.40;79.80;;;;;;5109422;28;20508;-81
2023/09/28 01:00:52;;;;;;;17.00;11.23;;;15.30;79.70;;;;;;5107506;28;20464;-80
2023/09/28 01:03:20;;;;;;;17.60;12.57;;;15.30;79.70;;;;;;5106992;28;20443;-81
2023/09/28 01:05:48;;;;;;;19.17;13.13;;;15.30;79.80;;;;;;5109196;28;20994;-79
2023/09/28 01:08:18;;;;;;;21.60;12.50;;;15.20;79.70;;;;;;5106925;28;20542;-79
2023/09/28 01:10:46;;;;;;;17.40;12.40;;;15.20;79.80;;;;;;5106459;28;20462;-81
2023/09/28 01:13:20;;;;;;;15.93;12.33;;;15.20;80.00;;;;;;5111137;28;20466;-79
2023/09/28 01:15:49;;;;;;;18.50;12.83;;;15.20;80.00;;;;;;5106323;28;20477;-81
2023/09/28 01:18:20;;;;;;;17.53;12.13;;;15.20;80.00;;;;;;5092884;28;20495;-82
2023/09/28 01:20:49;;;;;;;16.27;11.27;;;15.20;80.00;;;;;;5107691;28;20506;-80
2023/09/28 01:23:19;;;;;;;17.63;11.80;;;15.20;80.00;;;;;;5091012;28;20527;-79
2023/09/28 01:25:47;;;;;;;15.77;9.70;;;15.30;80.00;;;;;;5108108;28;20483;-79
2023/09/28 01:28:17;;;;;;;13.53;9.10;;;15.30;79.90;;;;;;5105339;28;20532;-80
2023/09/28 01:30:45;;;;;;;16.17;10.47;;;15.30;79.70;;;;;;5107322;28;20543;-80
2023/09/28 01:33:13;;;;;;;15.73;11.40;;;15.20;79.60;;;;;;5091949;28;21146;-81
2023/09/28 01:35:40;;;;;;;17.93;10.87;;;15.20;79.60;;;;;;5089103;28;20470;-80
2023/09/28 01:38:17;;;;;;;17.70;11.70;;;15.20;79.60;;;;;;5109143;28;21025;-81
2023/09/28 01:40:48;;;;;;;17.07;12.57;;;15.20;79.40;;;;;;5092083;27;20550;-80
2023/09/28 01:43:18;;;;;;;18.20;12.30;;;15.10;79.50;;;;;;5106988;28;20473;-79
2023/09/28 01:45:45;;;;;;;16.33;11.20;;;15.10;79.60;;;;;;5090860;28;20545;-80
2023/09/28 01:48:14;;;;;;;18.03;12.73;;;15.10;79.70;;;;;;5108579;28;20936;-80
2023/09/28 01:50:41;;;;;;;17.67;13.87;;;15.10;79.70;;;;;;5104588;28;20512;-80
2023/09/28 01:53:09;;;;;;;17.47;12.93;;;15.00;79.40;;;;;;5108531;28;20451;-79
2023/09/28 01:55:36;;;;;;;23.20;14.57;;;15.00;79.60;;;;;;5087155;28;20538;-81
2023/09/28 01:58:07;;;;;;;16.17;12.60;;;14.90;79.60;;;;;;5106609;28;20485;-80
2023/09/28 02:00:45;;;;;;;22.70;14.37;;;14.90;79.70;;;;;;5095140;28;20469;-82
2023/09/28 02:03:14;;;;;;;16.33;12.67;;;14.90;79.90;;;;;;5087602;28;20467;-80
2023/09/28 02:05:42;;;;;;;23.03;13.63;;;14.90;80.00;;;;;;5091569;28;20451;-79
2023/09/28 02:08:10;;;;;;;20.13;13.63;;;14.90;80.10;;;;;;5103463;28;20452;-79
2023/09/28 02:10:38;;;;;;;17.80;12.10;;;14.90;80.00;;;;;;5109009;28;20459;-80
2023/09/28 02:13:08;;;;;;;19.37;10.70;;;15.00;80.00;;;;;;5107283;28;20454;-80
2023/09/28 02:15:36;;;;;;;20.53;11.23;;;15.00;79.90;;;;;;5105161;28;20769;-80
2023/09/28 02:18:05;;;;;;;17.53;12.37;;;15.00;79.80;;;;;;5109276;28;20544;-80
2023/09/28 02:20:32;;;;;;;16.10;11.30;;;15.00;79.70;;;;;;5108934;28;20462;-80
2023/09/28 02:23:00;;;;;;;21.03;13.10;;;15.00;79.90;;;;;;5106377;28;20458;-80
2023/09/28 02:25:29;;;;;;;17.97;12.10;;;15.00;79.80;;;;;;5105889;28;20866;-82
2023/09/28 02:27:58;;;;;;;18.53;13.30;;;15.00;79.80;;;;;;5106739;28;20448;-80
2023/09/28 02:30:27;;;;;;;16.37;12.10;;;14.90;79.80;;;;;;5104399;28;20497;-82
2023/09/28 02:32:56;;;;;;;20.30;14.53;;;14.90;79.80;;;;;;5107061;28;20675;-78
2023/09/28 02:35:24;;;;;;;18.60;13.33;;;14.90;80.00;;;;;;5087735;28;20473;-79
2023/09/28 02:37:53;;;;;;;23.10;14.70;;;14.90;80.00;;;;;;5104495;28;20828;-80
2023/09/28 02:40:21;;;;;;;21.33;14.90;;;14.90;80.20;;;;;;5104809;28;20450;-80
2023/09/28 02:42:49;;;;;;;22.17;15.77;;;14.90;80.30;;;;;;5108252;28;20458;-80
2023/09/28 02:45:17;;;;;;;23.77;12.43;;;14.90;80.20;;;;;;5088962;28;20467;-80
2023/09/28 02:47:49;;;;;;;19.47;13.73;;;14.80;80.10;;;;;;5107889;28;20486;-80
2023/09/28 02:50:16;;;;;;;20.83;14.47;;;14.70;80.30;;;;;;5106786;28;20992;-81
2023/09/28 02:52:47;;;;;;;20.60;13.50;;;14.70;80.50;;;;;;5090990;28;20524;-80
2023/09/28 02:55:18;;;;;;;23.33;14.63;;;14.70;80.70;;;;;;5105090;28;20959;-80
2023/09/28 02:57:48;;;;;;;23.50;15.50;;;14.70;80.70;;;;;;5090566;28;20957;-81
2023/09/28 03:00:19;;;;;;;25.23;16.00;;;14.80;80.60;;;;;;5085062;28;20463;-79
2023/09/28 03:02:49;;;;;;;22.70;15.50;;;14.80;80.70;;;;;;5096418;28;20446;-79
2023/09/28 03:05:17;;;;;;;25.03;16.57;;;14.80;80.70;;;;;;5089989;28;20459;-79
2023/09/28 03:07:45;;;;;;;24.10;15.47;;;14.90;80.90;;;;;;5108639;28;20462;-81
2023/09/28 03:10:13;;;;;;;24.10;15.40;;;14.90;80.80;;;;;;5089975;28;20458;-82
2023/09/28 03:12:41;;;;;;;23.23;16.83;;;14.90;80.90;;;;;;5105768;28;21568;-81
2023/09/28 03:15:10;;;;;;;29.43;18.57;;;14.90;81.00;;;;;;5088850;28;20455;-81
2023/09/28 03:17:39;;;;;;;25.17;18.77;;;15.00;81.10;;;;;;5102900;28;20500;-79
2023/09/28 03:20:13;;;;;;;25.83;16.77;;;15.00;81.00;;;;;;5094394;28;20454;-79
2023/09/28 03:22:43;;;;;;;25.10;17.50;;;15.00;81.20;;;;;;5108958;28;20706;-80
2023/09/28 03:25:16;;;;;;;26.77;18.87;;;15.00;81.30;;;;;;5101524;28;20774;-80
2023/09/28 03:27:45;;;;;;;55.13;20.00;;;15.10;81.40;;;;;;5089946;28;20451;-80
2023/09/28 03:30:14;;;;;;;128.53;22.27;;;15.10;81.40;;;;;;5104487;28;20465;-79
2023/09/28 03:32:42;;;;;;;44.80;19.10;;;15.10;81.50;;;;;;5088890;28;20976;-80
2023/09/28 03:35:12;;;;;;;44.03;19.23;;;15.10;81.60;;;;;;5106361;28;20948;-79
2023/09/28 03:37:41;;;;;;;50.37;19.77;;;15.10;81.90;;;;;;5104261;28;20482;-78
2023/09/28 03:40:11;;;;;;;27.93;17.37;;;15.20;82.00;;;;;;5103345;28;20785;-80
2023/09/28 03:42:41;;;;;;;30.50;17.87;;;15.20;82.20;;;;;;5106654;28;20455;-80
2023/09/28 03:45:11;;;;;;;21.23;15.53;;;15.30;82.20;;;;;;5084325;28;20477;-79
2023/09/28 03:47:39;;;;;;;58.67;16.90;;;15.30;82.30;;;;;;5086407;28;20458;-80
2023/09/28 03:50:12;;;;;;;29.90;14.50;;;15.30;82.40;;;;;;5108126;28;20955;-80
2023/09/28 03:52:42;;;;;;;21.33;14.03;;;15.30;82.50;;;;;;5095348;28;20538;-80
2023/09/28 03:55:12;;;;;;;45.83;16.30;;;15.40;82.50;;;;;;5108284;28;20450;-81
2023/09/28 03:57:42;;;;;;;59.63;20.20;;;15.40;82.60;;;;;;5107730;28;20577;-79
2023/09/28 04:00:14;;;;;;;107.87;25.87;;;15.40;82.50;;;;;;5110705;28;20850;-80
2023/09/28 04:02:44;;;;;;;76.10;26.43;;;15.30;82.60;;;;;;5091537;28;20487;-80
2023/09/28 04:05:17;;;;;;;52.60;26.83;;;15.30;82.60;;;;;;5109993;28;20873;-80
2023/09/28 04:07:45;;;;;;;58.33;24.20;;;15.30;82.70;;;;;;5111651;28;20447;-81
2023/09/28 04:10:14;;;;;;;51.43;21.90;;;15.20;82.70;;;;;;5104254;28;20463;-80
2023/09/28 04:12:42;;;;;;;75.27;21.90;;;15.20;82.70;;;;;;5111399;28;20454;-81
2023/09/28 04:15:10;;;;;;;64.37;20.87;;;15.20;82.70;;;;;;5093810;28;20542;-80
2023/09/28 04:17:38;;;;;;;64.50;20.80;;;15.20;82.80;;;;;;5090262;28;20478;-79
2023/09/28 04:20:11;;;;;;;45.17;19.53;;;15.10;82.80;;;;;;5109781;28;20466;-81
2023/09/28 04:22:40;;;;;;;33.90;17.20;;;15.10;82.90;;;;;;5106919;28;20557;-79
2023/09/28 04:25:09;;;;;;;21.23;15.27;;;15.00;83.00;;;;;;5111389;28;20547;-81
2023/09/28 04:27:37;;;;;;;23.60;16.00;;;15.00;83.20;;;;;;5112126;28;20454;-81
2023/09/28 04:30:08;;;;;;;23.87;16.37;;;15.10;83.30;;;;;;5112807;28;20455;-81
2023/09/28 04:32:36;;;;;;;22.93;14.90;;;15.10;83.20;;;;;;5110802;28;20468;-80
2023/09/28 04:35:10;;;;;;;21.13;14.17;;;15.00;83.10;;;;;;5093746;28;20962;-80
2023/09/28 04:37:40;;;;;;;23.93;15.17;;;14.90;83.00;;;;;;5091554;28;20539;-81
2023/09/28 04:40:10;;;;;;;22.60;15.80;;;14.80;83.10;;;;;;5111510;28;20462;-80
2023/09/28 04:42:39;;;;;;;21.80;14.73;;;14.80;83.20;;;;;;5107908;28;20458;-80
2023/09/28 04:45:09;;;;;;;20.43;14.30;;;14.80;83.30;;;;;;5109442;28;21137;-80
2023/09/28 04:47:38;;;;;;;16.70;12.40;;;14.80;83.30;;;;;;5092103;28;20994;-82
2023/09/28 04:50:08;;;;;;;18.00;12.60;;;14.80;83.50;;;;;;5093444;28;20455;-80
2023/09/28 04:52:36;;;;;;;17.37;13.70;;;14.80;83.50;;;;;;5097507;28;20464;-81
2023/09/28 04:55:08;;;;;;;17.13;12.63;;;14.90;83.40;;;;;;5103881;28;20462;-81
2023/09/28 04:57:36;;;;;;;21.70;16.37;;;14.90;83.40;;;;;;5110582;28;20469;-80
2023/09/28 05:00:08;;;;;;;19.87;15.80;;;14.90;83.40;;;;;;5108098;28;20515;-79
2023/09/28 05:02:36;;;;;;;22.40;16.90;;;15.00;83.40;;;;;;5102219;28;20513;-80
2023/09/28 05:05:09;;;;;;;19.70;13.73;;;15.00;83.50;;;;;;5105356;28;20446;-81
2023/09/28 05:07:37;;;;;;;23.73;14.30;;;15.10;83.50;;;;;;5094322;28;20468;-81
2023/09/28 05:10:08;;;;;;;17.50;13.57;;;15.10;83.40;;;;;;5109133;28;20878;-80
2023/09/28 05:12:35;;;;;;;19.40;14.10;;;15.10;83.20;;;;;;5110563;28;20459;-80
2023/09/28 05:15:04;;;;;;;18.17;12.63;;;15.10;83.20;;;;;;5103519;28;21055;-81
2023/09/28 05:17:32;;;;;;;21.27;13.93;;;15.10;83.00;;;;;;5091356;28;20496;-79
2023/09/28 05:20:00;;;;;;;19.77;14.70;;;15.20;83.00;;;;;;5107662;28;20457;-81
2023/09/28 05:22:28;;;;;;;19.10;14.67;;;15.20;83.00;;;;;;5089631;28;21050;-80
2023/09/28 05:24:56;;;;;;;19.60;14.97;;;15.20;83.00;;;;;;5106542;28;20566;-79
2023/09/28 05:27:26;;;;;;;19.53;14.07;;;15.20;82.80;;;;;;5110214;28;20541;-81
2023/09/28 05:29:54;;;;;;;24.40;18.13;;;15.10;82.70;;;;;;5109179;28;20537;-79
2023/09/28 05:32:23;;;;;;;24.10;18.10;;;15.10;82.90;;;;;;5106784;28;20505;-80
2023/09/28 05:34:51;;;;;;;22.03;17.97;;;15.10;83.10;;;;;;5087373;28;20500;-80
2023/09/28 05:37:19;;;;;;;19.43;15.60;;;15.10;83.20;;;;;;5107533;28;20537;-80
2023/09/28 05:39:47;;;;;;;21.20;15.80;;;15.10;83.20;;;;;;5110217;28;20461;-81
2023/09/28 05:42:15;;;;;;;19.00;14.43;;;15.10;83.00;;;;;;5090229;28;20485;-80
2023/09/28 05:44:44;;;;;;;17.60;13.87;;;15.10;82.90;;;;;;5100962;27;20464;-80
2023/09/28 05:47:12;;;;;;;18.40;14.03;;;15.10;82.90;;;;;;5091776;28;20460;-79
2023/09/28 05:49:42;;;;;;;23.33;13.47;;;15.10;83.10;;;;;;5089833;28;20852;-80
2023/09/28 05:52:10;;;;;;;16.37;11.20;;;15.10;83.20;;;;;;5104590;28;20461;-80
2023/09/28 05:54:38;;;;;;;16.20;11.73;;;15.10;82.90;;;;;;5087296;28;20942;-81
2023/09/28 05:57:06;;;;;;;15.07;12.40;;;15.10;83.00;;;;;;5103095;28;20459;-80
2023/09/28 05:59:36;;;;;;;15.50;12.23;;;15.10;83.10;;;;;;5104922;28;20583;-80
2023/09/28 06:02:08;;;;;;;17.57;10.60;;;15.10;83.20;;;;;;5108936;28;20598;-80
2023/09/28 06:04:37;;;;;;;20.97;10.33;;;15.10;83.20;;;;;;5109322;28;20461;-79
2023/09/28 06:07:05;;;;;;;15.50;11.80;;;15.20;83.20;;;;;;5088195;28;20508;-81
2023/09/28 06:09:33;;;;;;;21.30;13.80;;;15.20;83.20;;;;;;5102211;28;20450;-80
2023/09/28 06:12:02;;;;;;;15.63;10.90;;;15.20;83.20;;;;;;5105095;28;20550;-81
2023/09/28 06:14:30;;;;;;;16.13;10.70;;;15.30;83.20;;;;;;5104805;28;20550;-80
2023/09/28 06:17:00;;;;;;;13.50;10.97;;;15.30;83.20;;;;;;5104972;28;20460;-79
2023/09/28 06:19:29;;;;;;;14.30;10.13;;;15.30;83.00;;;;;;5091290;28;20486;-80
2023/09/28 06:22:09;;;;;;;17.93;11.40;;;15.30;82.90;;;;;;5107027;28;20560;-78
2023/09/28 06:24:39;;;;;;;15.50;11.43;;;15.30;82.90;;;;;;5102656;28;20872;-77
2023/09/28 06:27:06;;;;;;;15.60;12.57;;;15.30;82.80;;;;;;5106652;28;20976;-79
2023/09/28 06:29:34;;;;;;;15.00;10.90;;;15.40;82.80;;;;;;5103606;28;20943;-80
2023/09/28 06:32:04;;;;;;;14.33;11.30;;;15.40;82.80;;;;;;5102020;28;20471;-77
2023/09/28 06:34:33;;;;;;;16.63;11.93;;;15.40;82.90;;;;;;5108730;28;20455;-80
2023/09/28 06:37:02;;;;;;;16.93;12.03;;;15.40;83.00;;;;;;5104568;27;20540;-79
2023/09/28 06:39:30;;;;;;;15.23;12.17;;;15.50;83.00;;;;;;5107546;28;20470;-81
2023/09/28 06:41:59;;;;;;;17.90;12.63;;;15.50;83.00;;;;;;5114382;28;20944;-80
2023/09/28 06:44:47;;;;;;;18.17;14.43;;;15.50;83.00;;;;;;5087960;28;20463;-80
2023/09/28 06:47:15;;;;;;;16.17;12.60;;;15.60;83.20;;;;;;5107539;28;20458;-81
2023/09/28 06:49:44;;;;;;;15.77;12.53;;;15.60;83.20;;;;;;5107180;28;20458;-80
2023/09/28 06:52:12;;;;;;;18.93;12.47;;;15.70;83.30;;;;;;5108748;28;20840;-79
2023/09/28 06:54:41;;;;;;;16.27;12.60;;;15.70;83.30;;;;;;5102862;28;20463;-80
2023/09/28 06:57:09;;;;;;;17.20;12.90;;;15.80;83.30;;;;;;5106451;28;20470;-81
2023/09/28 06:59:37;;;;;;;14.27;11.90;;;15.80;83.20;;;;;;5102720;28;21071;-80
2023/09/28 07:02:05;;;;;;;17.57;11.90;;;15.80;83.30;;;;;;5086734;28;20489;-81
2023/09/28 07:04:33;;;;;;;18.43;13.10;;;15.90;83.20;;;;;;5108149;28;20490;-81
2023/09/28 07:07:03;;;;;;;15.77;12.27;;;15.90;83.30;;;;;;5106314;28;20535;-81
2023/09/28 07:09:32;;;;;;;19.77;14.17;;;15.90;83.40;;;;;;5107651;28;20458;-80
2023/09/28 07:12:18;;;;;;;16.83;13.30;;;16.00;83.40;;;;;;5104554;28;20460;-80
2023/09/28 07:14:47;;;;;;;16.83;12.33;;;16.00;83.40;;;;;;5108095;28;20785;-80
2023/09/28 07:17:16;;;;;;;15.33;12.40;;;16.00;83.30;;;;;;5109161;28;20455;-79
2023/09/28 07:19:44;;;;;;;16.23;12.40;;;16.00;83.40;;;;;;5105968;28;20566;-80
2023/09/28 07:22:15;;;;;;;14.77;11.33;;;16.00;83.50;;;;;;5104177;28;20471;-79
2023/09/28 07:24:46;;;;;;;14.50;12.23;;;16.10;83.50;;;;;;5103604;28;20556;-80
2023/09/28 07:27:14;;;;;;;16.50;12.70;;;16.10;83.60;;;;;;5104989;28;20460;-81
2023/09/28 07:29:42;;;;;;;15.03;11.50;;;16.20;83.60;;;;;;5105637;28;20459;-80
2023/09/28 07:32:13;;;;;;;16.87;13.53;;;16.20;83.70;;;;;;5106914;28;20478;-80
2023/09/28 07:34:41;;;;;;;14.67;12.30;;;16.20;83.70;;;;;;5107062;28;20538;-81
2023/09/28 07:37:09;;;;;;;16.17;13.27;;;16.30;83.70;;;;;;5106737;28;20864;-81
2023/09/28 07:39:38;;;;;;;16.50;13.30;;;16.30;83.80;;;;;;5105432;28;20467;-80
2023/09/28 07:42:08;;;;;;;13.97;11.40;;;16.40;83.80;;;;;;5103099;28;20542;-80
2023/09/28 07:44:36;;;;;;;14.30;12.77;;;16.40;83.90;;;;;;5104079;28;20455;-79
2023/09/28 07:47:04;;;;;;;15.23;11.50;;;16.40;83.90;;;;;;5107496;28;20463;-81
2023/09/28 07:49:32;;;;;;;17.77;13.53;;;16.50;83.90;;;;;;5107470;28;20549;-79
2023/09/28 07:52:00;;;;;;;13.63;10.80;;;16.50;83.90;;;;;;5086636;28;21025;-81
2023/09/28 07:54:28;;;;;;;15.53;12.93;;;16.50;84.00;;;;;;5106690;28;20458;-80
2023/09/28 07:56:57;;;;;;;15.00;12.50;;;16.60;84.10;;;;;;5090745;28;20473;-80
2023/09/28 07:59:25;;;;;;;14.50;11.53;;;16.60;84.10;;;;;;5091103;28;20571;-81
2023/09/28 08:01:53;;;;;;;14.77;11.10;;;16.60;84.20;;;;;;5104542;28;20467;-80
2023/09/28 08:04:21;;;;;;;15.63;11.93;;;16.70;84.20;;;;;;5106817;28;20470;-79
2023/09/28 08:06:49;;;;;;;14.30;11.40;;;16.70;84.30;;;;;;5106327;28;20871;-81
2023/09/28 08:09:19;;;;;;;14.43;12.20;;;16.80;84.40;;;;;;5104050;28;20440;-80
2023/09/28 08:11:48;;;;;;;16.90;12.17;;;16.80;84.40;;;;;;5106873;28;20530;-80
2023/09/28 08:14:18;;;;;;;16.57;13.00;;;16.90;84.50;;;;;;5106874;28;20448;-80
2023/09/28 08:16:46;;;;;;;13.80;12.30;;;16.90;84.60;;;;;;5089029;28;20455;-80
2023/09/28 08:19:14;;;;;;;14.17;11.50;;;16.90;84.70;;;;;;5087256;28;20478;-80
2023/09/28 08:21:43;;;;;;;13.60;12.10;;;17.00;84.70;;;;;;5107222;28;20455;-81
2023/09/28 08:24:12;;;;;;;16.00;13.50;;;17.10;84.70;;;;;;5102538;28;20460;-80
2023/09/28 08:26:40;;;;;;;15.60;11.73;;;17.10;84.90;;;;;;5087689;28;20497;-79
2023/09/28 08:29:08;;;;;;;14.13;11.93;;;17.20;84.80;;;;;;5103230;28;20483;-80
2023/09/28 08:31:37;;;;;;;18.47;12.40;;;17.20;84.90;;;;;;5087217;28;20472;-80
2023/09/28 08:34:08;;;;;;;15.43;11.67;;;17.30;85.00;;;;;;5103366;28;20504;-80
2023/09/28 08:36:36;;;;;;;16.03;12.20;;;17.40;85.20;;;;;;5108954;28;20449;-79
2023/09/28 08:39:05;;;;;;;18.13;12.27;;;17.50;85.20;;;;;;5107634;28;20570;-80
2023/09/28 08:41:43;;;;;;;14.73;11.30;;;17.50;85.30;;;;;;5107101;28;20973;-79
2023/09/28 08:44:12;;;;;;;17.17;12.20;;;17.60;85.30;;;;;;5110953;28;20526;-80
2023/09/28 08:46:43;;;;;;;12.90;10.50;;;17.60;85.30;;;;;;5110520;28;20463;-79
2023/09/28 08:49:14;;;;;;;12.60;10.47;;;17.70;85.20;;;;;;5089280;28;20456;-79
2023/09/28 08:51:45;;;;;;;15.60;10.63;;;17.70;85.20;;;;;;5110207;28;20498;-80
2023/09/28 08:54:14;;;;;;;13.90;10.90;;;17.80;85.20;;;;;;5108245;28;20800;-80
2023/09/28 08:56:42;;;;;;;13.47;10.90;;;17.80;85.20;;;;;;5092371;28;20471;-81
2023/09/28 08:59:10;;;;;;;13.37;10.80;;;17.90;85.10;;;;;;5094282;28;20552;-80
2023/09/28 09:01:40;;;;;;;17.07;10.50;;;18.00;85.20;;;;;;5109035;28;20468;-79
2023/09/28 09:04:11;;;;;;;15.37;9.13;;;18.00;85.20;;;;;;5108301;28;20535;-80
2023/09/28 09:06:41;;;;;;;13.67;8.23;;;18.10;85.20;;;;;;5107171;28;20445;-80
2023/09/28 09:09:15;;;;;;;11.00;8.70;;;18.10;85.20;;;;;;5107960;28;20483;-79
2023/09/28 09:11:49;;;;;;;10.53;8.70;;;18.20;85.20;;;;;;5109388;28;20462;-80
2023/09/28 09:14:18;;;;;;;11.93;8.57;;;18.20;85.10;;;;;;5107722;28;20530;-80
2023/09/28 09:16:47;;;;;;;13.20;10.20;;;18.30;85.00;;;;;;5106643;28;20484;-80
2023/09/28 09:19:16;;;;;;;14.73;9.67;;;18.30;85.10;;;;;;5102187;28;20799;-79
2023/09/28 09:21:44;;;;;;;11.17;8.47;;;18.40;85.00;;;;;;5109316;28;20483;-80
2023/09/28 09:24:14;;;;;;;13.27;9.20;;;18.40;85.00;;;;;;5108175;28;20500;-78
2023/09/28 09:26:44;;;;;;;13.20;7.93;;;18.50;84.90;;;;;;5107441;28;20467;-79
2023/09/28 09:29:14;;;;;;;12.30;7.53;;;18.60;84.90;;;;;;5086833;28;20459;-78
2023/09/28 09:31:44;;;;;;;11.67;8.00;;;18.60;84.90;;;;;;5089265;28;20467;-79
2023/09/28 09:34:12;;;;;;;12.60;7.77;;;18.70;84.90;;;;;;5108922;28;20998;-80
2023/09/28 09:36:42;;;;;;;19.70;7.00;;;18.80;84.80;;;;;;5106198;28;20521;-81
2023/09/28 09:39:22;;;;;;;13.60;7.10;;;18.90;84.70;;;;;;5107819;28;20544;-80
2023/09/28 09:41:51;;;;;;;9.97;5.97;;;19.00;84.50;;;;;;5090947;28;20472;-78
2023/09/28 09:44:21;;;;;;;9.77;6.93;;;19.10;84.40;;;;;;5091221;28;20456;-78
2023/09/28 09:46:50;;;;;;;11.40;6.40;;;19.10;84.20;;;;;;5108527;28;20466;-79
2023/09/28 09:49:19;;;;;;;9.27;7.03;;;19.20;84.10;;;;;;5091451;28;20445;-78
2023/09/28 09:51:48;;;;;;;10.83;6.90;;;19.30;83.90;;;;;;5107138;28;20451;-79
2023/09/28 09:54:18;;;;;;;9.77;6.67;;;19.40;83.80;;;;;;5109095;28;20444;-82
2023/09/28 09:56:47;;;;;;;11.80;7.73;;;19.50;83.60;;;;;;5105879;28;20947;-78
2023/09/28 09:59:16;;;;;;;10.03;5.77;;;19.60;83.40;;;;;;5087284;28;20475;-81
2023/09/28 10:01:48;;;;;;;11.13;5.80;;;19.70;83.20;;;;;;5109060;28;20476;-80
2023/09/28 10:04:19;;;;;;;8.93;6.30;;;19.80;82.90;;;;;;5105361;28;20456;-79
2023/09/28 10:06:51;;;;;;;9.27;6.00;;;19.90;82.70;;;;;;5104175;28;20455;-80
2023/09/28 10:09:20;;;;;;;9.60;6.17;;;19.90;82.50;;;;;;5107268;28;20459;-78
2023/09/28 10:11:50;;;;;;;9.47;6.17;;;20.00;82.20;;;;;;5104840;28;20943;-79
2023/09/28 10:14:21;;;;;;;10.70;6.00;;;20.00;82.20;;;;;;5102750;28;20806;-79
2023/09/28 10:16:53;;;;;;;10.23;6.47;;;20.10;82.00;;;;;;5109129;28;21372;-80
2023/09/28 10:19:23;;;;;;;8.90;5.23;;;20.30;81.70;;;;;;5109074;28;20539;-80
2023/09/28 10:21:55;;;;;;;8.67;6.20;;;20.30;81.50;;;;;;5106974;28;20529;-80
2023/09/28 10:24:30;;;;;;;11.60;5.60;;;20.40;81.40;;;;;;5108943;28;20554;-80
2023/09/28 10:27:08;;;;;;;9.33;6.00;;;20.40;81.10;;;;;;5109287;28;20462;-77
2023/09/28 10:29:36;;;;;;;8.23;5.00;;;20.50;80.90;;;;;;5099683;28;20830;-79
2023/09/28 10:32:13;;;;;;;8.80;5.23;;;20.60;80.80;;;;;;5106747;28;20468;-79
2023/09/28 10:34:43;;;;;;;10.60;4.57;;;20.60;80.50;;;;;;5109181;28;20501;-80
2023/09/28 10:37:19;;;;;;;7.70;5.13;;;20.60;80.20;;;;;;5108956;28;20458;-79
2023/09/28 10:39:52;;;;;;;9.07;5.20;;;20.70;79.90;;;;;;5106233;28;20817;-80
2023/09/28 10:42:22;;;;;;;13.63;5.73;;;20.70;79.90;;;;;;5107394;28;20484;-79
2023/09/28 10:44:52;;;;;;;9.57;4.63;;;20.80;79.40;;;;;;5105208;28;20452;-80
2023/09/28 10:47:21;;;;;;;9.27;5.10;;;20.90;79.30;;;;;;5105457;28;20543;-77
2023/09/28 10:49:58;;;;;;;7.80;4.47;;;20.90;79.10;;;;;;5088240;28;20457;-78
2023/09/28 10:52:29;;;;;;;7.97;4.93;;;21.00;79.00;;;;;;5104943;28;20448;-80
2023/09/28 10:54:57;;;;;;;8.57;5.00;;;21.10;78.60;;;;;;5108568;28;20516;-80
2023/09/28 10:57:30;;;;;;;9.13;4.93;;;21.10;78.50;;;;;;5090450;28;20509;-82
2023/09/28 11:00:03;;;;;;;11.13;5.20;;;21.20;78.20;;;;;;5084229;28;20479;-80
2023/09/28 11:02:36;;;;;;;12.77;5.60;;;21.20;78.00;;;;;;5105590;28;20989;-79
2023/09/28 11:05:07;;;;;;;6.97;4.40;;;21.30;77.90;;;;;;5109953;28;20453;-80
2023/09/28 11:07:42;;;;;;;9.60;4.37;;;21.40;77.50;;;;;;5105386;28;21058;-80
2023/09/28 11:10:11;;;;;;;8.47;5.43;;;21.40;77.10;;;;;;5106245;28;20457;-79
2023/09/28 11:12:41;;;;;;;8.87;4.70;;;21.50;77.20;;;;;;5106155;28;20456;-79
2023/09/28 11:15:14;;;;;;;8.50;4.40;;;21.60;76.70;;;;;;5105731;28;20514;-78
2023/09/28 11:17:46;;;;;;;9.20;4.83;;;21.70;76.30;;;;;;5101301;28;20551;-79
2023/09/28 11:20:15;;;;;;;7.57;4.60;;;21.70;76.00;;;;;;5086206;28;20848;-81
2023/09/28 11:22:45;;;;;;;7.57;4.70;;;21.80;75.70;;;;;;5104367;28;20487;-81
2023/09/28 11:25:13;;;;;;;8.93;4.73;;;21.80;75.20;;;;;;5106399;28;20470;-82
2023/09/28 11:27:57;;;;;;;8.30;4.47;;;21.80;74.90;;;;;;5105748;28;20460;-81
2023/09/28 11:30:26;;;;;;;7.97;4.70;;;21.80;75.00;;;;;;5104194;28;20498;-81
2023/09/28 11:32:54;;;;;;;8.03;4.90;;;21.80;74.80;;;;;;5106752;28;20456;-80
2023/09/28 11:35:24;;;;;;;9.73;4.90;;;21.90;74.60;;;;;;5106516;28;20463;-80
2023/09/28 11:37:59;;;;;;;12.17;4.70;;;21.90;74.60;;;;;;5089701;28;20543;-79
2023/09/28 11:40:28;;;;;;;7.40;4.33;;;22.00;74.50;;;;;;5090099;28;20830;-80
2023/09/28 11:42:59;;;;;;;7.27;4.83;;;22.00;74.30;;;;;;5106642;28;21150;-80
2023/09/28 11:45:28;;;;;;;7.97;3.97;;;22.10;74.00;;;;;;5103265;28;20487;-80
2023/09/28 11:47:57;;;;;;;10.50;3.70;;;22.20;73.90;;;;;;5103332;28;20487;-80
2023/09/28 11:50:34;;;;;;;8.20;4.23;;;22.20;73.50;;;;;;5109405;28;20459;-81
2023/09/28 11:53:08;;;;;;;8.07;4.07;;;22.30;72.80;;;;;;5110421;28;20490;-79
2023/09/28 11:55:37;;;;;;;9.17;4.20;;;22.30;72.50;;;;;;5108893;28;20472;-80
2023/09/28 11:58:08;;;;;;;7.30;4.47;;;22.30;72.50;;;;;;5089927;28;20452;-81
2023/09/28 12:00:37;;;;;;;7.37;4.10;;;22.40;72.50;;;;;;5105890;28;20539;-81
2023/09/28 12:03:05;;;;;;;8.23;3.40;;;22.40;72.40;;;;;;5102868;28;20472;-79
2023/09/28 12:05:33;;;;;;;8.23;4.50;;;22.50;72.20;;;;;;5103391;28;20973;-81
2023/09/28 12:08:02;;;;;;;7.60;4.10;;;22.50;71.90;;;;;;5102423;28;20460;-80
2023/09/28 12:10:32;;;;;;;9.80;3.70;;;22.60;71.60;;;;;;5104149;28;20459;-80
2023/09/28 12:13:00;;;;;;;6.87;3.67;;;22.60;71.80;;;;;;5106365;28;20543;-79
2023/09/28 12:15:28;;;;;;;10.30;4.83;;;22.70;71.70;;;;;;5090207;28;20451;-81
2023/09/28 12:17:56;;;;;;;7.57;3.80;;;22.70;71.50;;;;;;5090650;28;20499;-81
2023/09/28 12:20:24;;;;;;;7.00;3.60;;;22.90;71.10;;;;;;5109915;28;20462;-78
2023/09/28 12:22:52;;;;;;;7.23;3.30;;;23.00;70.70;;;;;;5104413;28;20473;-80
2023/09/28 12:25:21;;;;;;;7.83;3.33;;;23.00;70.30;;;;;;5105012;28;20451;-81
2023/09/28 12:27:51;;;;;;;6.47;3.80;;;23.00;69.80;;;;;;5093200;28;20822;-78
2023/09/28 12:30:21;;;;;;;6.70;2.93;;;23.00;69.40;;;;;;5108336;28;20950;-80
2023/09/28 12:32:51;;;;;;;9.83;3.47;;;23.10;69.40;;;;;;5110162;28;20455;-79
2023/09/28 12:35:19;;;;;;;7.43;3.60;;;23.10;69.10;;;;;;5090625;28;20444;-80
2023/09/28 12:37:49;;;;;;;5.43;2.53;;;23.20;68.80;;;;;;5107541;28;20551;-80
2023/09/28 12:40:18;;;;;;;7.40;3.00;;;23.20;68.40;;;;;;5103819;28;20565;-81
2023/09/28 12:42:46;;;;;;;7.37;3.37;;;23.30;68.20;;;;;;5090070;28;20468;-79